Time;durP1;ratioP1;P1;durP2;ratioP2;P2;SDS_P1;SDS_P2;PMS_P1;PMS_P2;Temp;Humidity;BMP_temperature;BMP_pressure;BME280_temperature;BME280_humidity;BME280_pressure;Samples;Min_cycle;Max_cycle;Signal;HPM_P1;HPM_P2
2022/01/04 00:04:22;;;;;;;;;;;;;;;6.93;92.80664;100175.9;;;;-85
2022/01/04 00:09:25;;;;;;;;;;;;;;;6.93;92.80664;100162.4;;;;-85
2022/01/04 00:14:24;;;;;;;;;;;;;;;6.92;92.83789;100157.6;;;;-84
2022/01/04 00:19:27;;;;;;;;;;;;;;;6.93;92.85059;100149.2;;;;-84
2022/01/04 00:21:19;;;;;;;11.2;1.6;;;;;;;;;;;;;-85
2022/01/04 00:24:29;;;;;;;;;;;;;;;6.94;92.94141;100138.2;;;;-85
2022/01/04 00:29:24;;;;;;;;;;;;;;;6.98;93.11133;100122.1;;;;-86
2022/01/04 00:34:23;;;;;;;;;;;;;;;7;93.19238;100113.4;;;;-85
2022/01/04 00:39:24;;;;;;;;;;;;;;;7.03;93.2998;100106.2;;;;-84
2022/01/04 00:44:23;;;;;;;;;;;;;;;7.07;93.32813;100103.3;;;;-84
2022/01/04 00:49:30;;;;;;;;;;;;;;;7.11;93.39258;100088.3;;;;-90
2022/01/04 00:51:19;;;;;;;8.1;1.5;;;;;;;;;;;;;-89
2022/01/04 00:54:26;;;;;;;;;;;;;;;7.14;93.43066;100082.7;;;;-88
2022/01/04 00:59:29;;;;;;;;;;;;;;;7.18;93.49316;100076;;;;-89
2022/01/04 01:04:32;;;;;;;;;;;;;;;7.2;93.51074;100073;;;;-89
2022/01/04 01:09:26;;;;;;;;;;;;;;;7.24;93.5293;100073.5;;;;-90
2022/01/04 01:14:23;;;;;;;;;;;;;;;7.28;93.5498;100066.8;;;;-86
2022/01/04 01:19:25;;;;;;;;;;;;;;;7.31;93.47949;100061.5;;;;-89
2022/01/04 01:21:25;;;;;;;12.5;2;;;;;;;;;;;;;-88
2022/01/04 01:24:26;;;;;;;;;;;;;;;7.32;93.34961;100049.5;;;;-90
2022/01/04 01:29:24;;;;;;;;;;;;;;;7.35;93.34473;100049.5;;;;-88
2022/01/04 01:34:33;;;;;;;;;;;;;;;7.36;93.3252;100042.2;;;;-89
2022/01/04 01:39:23;;;;;;;;;;;;;;;7.37;93.37012;100037.7;;;;-89
2022/01/04 01:44:24;;;;;;;;;;;;;;;7.38;93.39453;100035.8;;;;-84
2022/01/04 01:49:23;;;;;;;;;;;;;;;7.39;93.41992;100026.2;;;;-85
2022/01/04 01:51:19;;;;;;;17.2;3;;;;;;;;;;;;;-84
2022/01/04 01:54:23;;;;;;;;;;;;;;;7.4;93.37598;100022.5;;;;-83
2022/01/04 01:59:26;;;;;;;;;;;;;;;7.4;93.35645;100008.1;;;;-85
2022/01/04 02:04:24;;;;;;;;;;;;;;;7.41;93.36914;100004.3;;;;-85
2022/01/04 02:09:26;;;;;;;;;;;;;;;7.42;93.36035;99998.7;;;;-85
2022/01/04 02:14:25;;;;;;;;;;;;;;;7.42;93.27246;99984.91;;;;-91
2022/01/04 02:19:24;;;;;;;;;;;;;;;7.43;93.21973;99974.66;;;;-91
2022/01/04 02:21:22;;;;;;;14;2.8;;;;;;;;;;;;;-91
2022/01/04 02:24:38;;;;;;;;;;;;;;;7.46;93.41211;99975.81;;;;-90
2022/01/04 02:29:32;;;;;;;;;;;;;;;7.5;93.56445;99962.41;;;;-90
2022/01/04 02:34:24;;;;;;;;;;;;;;;7.53;93.43848;99955.94;;;;-90
2022/01/04 02:39:23;;;;;;;;;;;;;;;7.55;93.44238;99943.8;;;;-89
2022/01/04 02:44:29;;;;;;;;;;;;;;;7.56;93.4248;99945.14;;;;-89
2022/01/04 02:49:29;;;;;;;;;;;;;;;7.57;93.39355;99938.59;;;;-90
2022/01/04 02:51:23;;;;;;;11.7;2.7;;;;;;;;;;;;;-91
2022/01/04 02:54:25;;;;;;;;;;;;;;;7.58;93.38477;99925.72;;;;-90
2022/01/04 02:59:35;;;;;;;;;;;;;;;7.59;93.39746;99917.77;;;;-90
2022/01/04 03:04:29;;;;;;;;;;;;;;;7.57;93.23828;99913.2;;;;-90
2022/01/04 03:09:29;;;;;;;;;;;;;;;7.56;93.21484;99909.8;;;;-92
2022/01/04 03:14:23;;;;;;;;;;;;;;;7.54;93.17773;99899.09;;;;-89
2022/01/04 03:19:23;;;;;;;;;;;;;;;7.52;93.16309;99893.5;;;;-90
2022/01/04 03:21:21;;;;;;;11.8;2.7;;;;;;;;;;;;;-90
2022/01/04 03:24:31;;;;;;;;;;;;;;;7.51;93.18262;99892.39;;;;-91
2022/01/04 03:29:24;;;;;;;;;;;;;;;7.49;93.16797;99871.8;;;;-90
2022/01/04 03:34:23;;;;;;;;;;;;;;;7.48;93.14258;99863.16;;;;-85
2022/01/04 03:39:24;;;;;;;;;;;;;;;7.47;93.16211;99853.27;;;;-85
2022/01/04 03:44:24;;;;;;;;;;;;;;;7.45;93.14746;99835.41;;;;-85
2022/01/04 03:49:27;;;;;;;;;;;;;;;7.45;93.14746;99831.63;;;;-84
2022/01/04 03:51:19;;;;;;;13.1;2.7;;;;;;;;;;;;;-84
2022/01/04 03:54:23;;;;;;;;;;;;;;;7.45;93.11426;99828.42;;;;-83
2022/01/04 03:59:23;;;;;;;;;;;;;;;7.45;93.12305;99817.64;;;;-84
2022/01/04 04:04:23;;;;;;;;;;;;;;;7.44;93.12305;99798.33;;;;-85
2022/01/04 04:09:23;;;;;;;;;;;;;;;7.45;93.13672;99794.27;;;;-83
2022/01/04 04:14:24;;;;;;;;;;;;;;;7.44;93.14551;99796.53;;;;-85
2022/01/04 04:19:24;;;;;;;;;;;;;;;7.45;93.14551;99790.22;;;;-85
2022/01/04 04:21:17;;;;;;;13.3;2.8;;;;;;;;;;;;;-84
2022/01/04 04:24:23;;;;;;;;;;;;;;;7.44;93.2002;99800.67;;;;-84
2022/01/04 04:29:23;;;;;;;;;;;;;;;7.43;93.1875;99799.55;;;;-84
2022/01/04 04:34:23;;;;;;;;;;;;;;;7.43;93.23047;99785.27;;;;-85
2022/01/04 04:39:27;;;;;;;;;;;;;;;7.44;93.30957;99778.83;;;;-91
2022/01/04 04:44:23;;;;;;;;;;;;;;;7.44;93.34277;99768.45;;;;-89
2022/01/04 04:49:29;;;;;;;;;;;;;;;7.45;93.29004;99757.15;;;;-90
2022/01/04 04:51:19;;;;;;;13.3;2.6;;;;;;;;;;;;;-91
2022/01/04 04:54:24;;;;;;;;;;;;;;;7.46;93.32617;99756.52;;;;-90
2022/01/04 04:59:23;;;;;;;;;;;;;;;7.46;93.33691;99747.09;;;;-90
2022/01/04 05:04:25;;;;;;;;;;;;;;;7.47;93.33691;99741.7;;;;-91
2022/01/04 05:09:27;;;;;;;;;;;;;;;7.47;93.35938;99747.72;;;;-90
2022/01/04 05:14:23;;;;;;;;;;;;;;;7.48;93.46191;99741.34;;;;-88
2022/01/04 05:19:35;;;;;;;;;;;;;;;7.49;93.39746;99716.61;;;;-90
2022/01/04 05:21:23;;;;;;;13.2;3.5;;;;;;;;;;;;;-90
2022/01/04 05:24:23;;;;;;;;;;;;;;;7.49;93.43066;99712.2;;;;-90
2022/01/04 05:29:37;;;;;;;;;;;;;;;7.5;93.4541;99717.55;;;;-89
2022/01/04 05:34:25;;;;;;;;;;;;;;;7.5;93.42188;99716.27;;;;-90
2022/01/04 05:39:23;;;;;;;;;;;;;;;7.5;93.36523;99705.34;;;;-89
2022/01/04 05:44:27;;;;;;;;;;;;;;;7.49;93.35449;99706.69;;;;-91
2022/01/04 05:49:24;;;;;;;;;;;;;;;7.48;93.30664;99702.63;;;;-90
2022/01/04 05:51:23;;;;;;;11.6;3.2;;;;;;;;;;;;;-90
2022/01/04 05:54:26;;;;;;;;;;;;;;;7.47;93.25;99691.13;;;;-90
2022/01/04 05:59:26;;;;;;;;;;;;;;;7.45;93.24609;99697.64;;;;-89
2022/01/04 06:04:27;;;;;;;;;;;;;;;7.44;93.2002;99706.05;;;;-83
2022/01/04 06:09:27;;;;;;;;;;;;;;;7.42;93.16309;99693.16;;;;-84
2022/01/04 06:19:23;;;;;;;;;;;;;;;7.41;93.17285;99685.6;;;;-83
2022/01/04 06:21:17;;;;;;;12.3;3.2;;;;;;;;;;;;;-86
2022/01/04 06:24:23;;;;;;;;;;;;;;;7.42;93.21777;99686.32;;;;-85
2022/01/04 06:29:23;;;;;;;;;;;;;;;7.41;93.19434;99681.33;;;;-85
2022/01/04 06:34:22;;;;;;;;;;;;;;;7.43;93.16504;99674.89;;;;-84
2022/01/04 06:39:25;;;;;;;;;;;;;;;7.42;93.20703;99668.03;;;;-85
2022/01/04 06:44:25;;;;;;;;;;;;;;;7.44;93.26563;99670.19;;;;-86
2022/01/04 06:49:24;;;;;;;;;;;;;;;7.44;93.24414;99661.09;;;;-85
2022/01/04 06:51:17;;;;;;;14.3;3.4;;;;;;;;;;;;;-86
2022/01/04 06:54:23;;;;;;;;;;;;;;;7.45;93.22168;99653.27;;;;-85
2022/01/04 06:59:25;;;;;;;;;;;;;;;7.45;93.26758;99643.72;;;;-86
2022/01/04 07:04:23;;;;;;;;;;;;;;;7.46;93.2373;99639.84;;;;-85
2022/01/04 07:09:25;;;;;;;;;;;;;;;7.46;93.28223;99645.52;;;;-86
2022/01/04 07:14:23;;;;;;;;;;;;;;;7.45;93.24609;99641.32;;;;-84
2022/01/04 07:19:23;;;;;;;;;;;;;;;7.44;93.2334;99639.58;;;;-85
2022/01/04 07:21:16;;;;;;;12.2;2.6;;;;;;;;;;;;;-84
2022/01/04 07:24:25;;;;;;;;;;;;;;;7.44;93.24414;99622.34;;;;-84
2022/01/04 07:29:23;;;;;;;;;;;;;;;7.44;93.27637;99624.28;;;;-85
2022/01/04 07:34:22;;;;;;;;;;;;;;;7.44;93.2334;99626.52;;;;-84
2022/01/04 07:39:23;;;;;;;;;;;;;;;7.44;93.2334;99630.06;;;;-85
2022/01/04 07:44:22;;;;;;;;;;;;;;;7.44;93.17773;99620.34;;;;-88
2022/01/04 07:49:31;;;;;;;;;;;;;;;7.45;93.18945;99631.59;;;;-89
2022/01/04 07:51:17;;;;;;;10.2;2.4;;;;;;;;;;;;;-89
2022/01/04 07:54:24;;;;;;;;;;;;;;;7.45;93.14551;99625.36;;;;-88
2022/01/04 07:59:29;;;;;;;;;;;;;;;7.44;93.14551;99628.42;;;;-89
2022/01/04 08:04:29;;;;;;;;;;;;;;;7.43;93.16504;99631.31;;;;-89
2022/01/04 08:09:32;;;;;;;;;;;;;;;7.43;93.19824;99643.7;;;;-91
2022/01/04 08:14:32;;;;;;;;;;;;;;;7.41;93.17285;99626.23;;;;-89
2022/01/04 08:19:29;;;;;;;;;;;;;;;7.39;93.10254;99632.34;;;;-90
2022/01/04 08:21:17;;;;;;;9.4;2.3;;;;;;;;;;;;;-90
2022/01/04 08:24:36;;;;;;;;;;;;;;;7.37;93.07715;99637.91;;;;-90
2022/01/04 08:29:24;;;;;;;;;;;;;;;7.35;93.04883;99644.06;;;;-91
2022/01/04 08:34:26;;;;;;;;;;;;;;;7.33;93.00391;99653.95;;;;-90
2022/01/04 08:39:26;;;;;;;;;;;;;;;7.32;92.94531;99654.67;;;;-89
2022/01/04 08:44:39;;;;;;;;;;;;;;;7.3;92.91699;99653.53;;;;-89
2022/01/04 08:49:25;;;;;;;;;;;;;;;7.29;92.92871;99659.64;;;;-89
2022/01/04 08:51:17;;;;;;;9.7;2.1;;;;;;;;;;;;;-91
2022/01/04 08:54:31;;;;;;;;;;;;;;;7.28;92.89355;99658.3;;;;-92
2022/01/04 08:59:24;;;;;;;;;;;;;;;7.27;92.87891;99663.3;;;;-91
2022/01/04 09:04:35;;;;;;;;;;;;;;;7.26;92.88965;99665.89;;;;-90
2022/01/04 09:09:39;;;;;;;;;;;;;;;7.25;92.875;99674.23;;;;-90
2022/01/04 09:14:41;;;;;;;;;;;;;;;7.24;92.87305;99665.41;;;;-90
2022/01/04 09:19:27;;;;;;;;;;;;;;;7.22;92.86914;99677.27;;;;-88
2022/01/04 09:21:17;;;;;;;8.3;1.8;;;;;;;;;;;;;-89
2022/01/04 09:24:31;;;;;;;;;;;;;;;7.21;92.87598;99691.65;;;;-89
2022/01/04 09:29:32;;;;;;;;;;;;;;;7.18;92.87207;99706.79;;;;-89
2022/01/04 09:34:26;;;;;;;;;;;;;;;7.17;92.81348;99707.22;;;;-90
2022/01/04 09:39:26;;;;;;;;;;;;;;;7.16;92.75879;99687.92;;;;-89
2022/01/04 09:44:28;;;;;;;;;;;;;;;7.17;92.71484;99702.72;;;;-90
2022/01/04 09:49:24;;;;;;;;;;;;;;;7.17;92.66016;99700.81;;;;-89
2022/01/04 09:51:32;;;;;;;6.7;1.4;;;;;;;;;;;;;-89
2022/01/04 09:54:28;;;;;;;;;;;;;;;7.18;92.65332;99710.14;;;;-87
2022/01/04 09:59:25;;;;;;;;;;;;;;;7.2;92.61133;99715.36;;;;-88
2022/01/04 10:04:25;;;;;;;;;;;;;;;7.2;92.55664;99722.02;;;;-90
2022/01/04 10:09:37;;;;;;;;;;;;;;;7.2;92.49316;99724.19;;;;-89
2022/01/04 10:14:34;;;;;;;;;;;;;;;7.2;92.42773;99713.41;;;;-89
2022/01/04 10:19:32;;;;;;;;;;;;;;;7.2;92.40527;99715.64;;;;-80
2022/01/04 10:21:19;;;;;;;4.8;1;;;;;;;;;;;;;-89
2022/01/04 10:24:26;;;;;;;;;;;;;;;7.19;92.40332;99729.44;;;;-88
2022/01/04 10:29:28;;;;;;;;;;;;;;;7.18;92.38867;99722.19;;;;-87
2022/01/04 10:34:28;;;;;;;;;;;;;;;7.16;92.43066;99725.73;;;;-89
2022/01/04 10:39:24;;;;;;;;;;;;;;;7.15;92.4375;99734.08;;;;-88
2022/01/04 10:44:37;;;;;;;;;;;;;;;7.16;92.33008;99736.31;;;;-90
2022/01/04 10:49:37;;;;;;;;;;;;;;;7.2;92.18652;99732.13;;;;-89
2022/01/04 10:51:21;;;;;;;3;0.7;;;;;;;;;;;;;-89
2022/01/04 10:54:27;;;;;;;;;;;;;;;7.24;92.01953;99729.82;;;;-88
2022/01/04 10:59:33;;;;;;;;;;;;;;;7.25;91.97754;99737.7;;;;-88
2022/01/04 11:04:24;;;;;;;;;;;;;;;7.26;91.89355;99735.98;;;;-89
2022/01/04 11:09:32;;;;;;;;;;;;;;;7.24;91.9541;99745.22;;;;-91
2022/01/04 11:14:23;;;;;;;;;;;;;;;7.23;91.92969;99755.36;;;;-86
2022/01/04 11:19:25;;;;;;;;;;;;;;;7.2;91.98828;99769.78;;;;-85
2022/01/04 11:21:18;;;;;;;1.5;0.9;;;;;;;;;;;;;-86
2022/01/04 11:24:30;;;;;;;;;;;;;;;7.16;91.98242;99779.41;;;;-83
2022/01/04 11:29:28;;;;;;;;;;;;;;;7.12;91.96191;99796.28;;;;-88
2022/01/04 11:34:30;;;;;;;;;;;;;;;7.1;91.90137;99807.84;;;;-85
2022/01/04 11:39:35;;;;;;;;;;;;;;;7.09;91.83594;99809.41;;;;-85
2022/01/04 11:44:26;;;;;;;;;;;;;;;7.07;91.66602;99814.41;;;;-85
2022/01/04 11:49:25;;;;;;;;;;;;;;;7.03;91.49414;99813.95;;;;-85
2022/01/04 11:51:26;;;;;;;5.5;0.6;;;;;;;;;;;;;-84
2022/01/04 11:54:26;;;;;;;;;;;;;;;7.03;91.54883;99817.92;;;;-84
2022/01/04 11:59:30;;;;;;;;;;;;;;;7.03;91.53809;99823.95;;;;-85
2022/01/04 12:04:34;;;;;;;;;;;;;;;7.02;91.50293;99829.57;;;;-89
2022/01/04 12:09:34;;;;;;;;;;;;;;;7.03;91.4502;99839.75;;;;-88
2022/01/04 12:14:43;;;;;;;;;;;;;;;7.02;91.34961;99841.71;;;;-88
2022/01/04 12:19:28;;;;;;;;;;;;;;;7.02;91.34961;99839.78;;;;-89
2022/01/04 12:21:30;;;;;;;1.7;0.5;;;;;;;;;;;;;-88
2022/01/04 12:24:26;;;;;;;;;;;;;;;7.01;91.24805;99841.13;;;;-88
2022/01/04 12:29:37;;;;;;;;;;;;;;;6.98;91.17676;99837.02;;;;-89
2022/01/04 12:34:35;;;;;;;;;;;;;;;6.97;91.13086;99840;;;;-89
2022/01/04 12:39:27;;;;;;;;;;;;;;;6.98;91.12207;99834.72;;;;-89
2022/01/04 12:49:41;;;;;;;;;;;;;;;6.94;91.02832;99830.26;;;;-88
2022/01/04 12:51:29;;;;;;;3.2;0.6;;;;;;;;;;;;;-87
2022/01/04 12:54:27;;;;;;;;;;;;;;;6.93;90.99219;99827.17;;;;-89
2022/01/04 12:59:43;;;;;;;;;;;;;;;6.91;91.00977;99824.71;;;;-89
2022/01/04 13:09:38;;;;;;;;;;;;;;;6.88;91.02637;99819.98;;;;-89
2022/01/04 13:14:08;;;;;;;4.8;1.3;;;;;;;;;;;;;-60
2022/01/04 13:20:25;;;;;;;;;;;;;;;16.79;68.12891;99760.83;;;;-56
2022/01/04 13:25:21;;;;;;;;;;;;;;;18.06;61.95898;99758.52;;;;-51
2022/01/04 13:30:21;;;;;;;;;;;;;;;18.67;58.24512;99755.61;;;;-54
2022/01/04 13:35:21;;;;;;;;;;;;;;;18.95;56.60156;99753.97;;;;-51
2022/01/04 13:40:20;;;;;;;;;;;;;;;19.14;55.75;99758.33;;;;-51
2022/01/04 13:44:11;;;;;;;1.6;0.5;;;;;;;;;;;;;-47
2022/01/04 13:45:21;;;;;;;;;;;;;;;19.27;55.0957;99761;;;;-46
2022/01/04 13:50:21;;;;;;;;;;;;;;;19.36;54.0498;99760.73;;;;-52
2022/01/04 13:55:20;;;;;;;;;;;;;;;19.43;53.95508;99761.21;;;;-53
2022/01/04 14:00:38;;;;;;;;;;;;;;;19.48;53.6543;99769.25;;;;-44
2022/01/04 14:05:21;;;;;;;;;;;;;;;19.51;53.52051;99765.84;;;;-48
2022/01/04 14:10:20;;;;;;;;;;;;;;;19.55;52.92285;99768.46;;;;-47
2022/01/04 14:14:14;;;;;;;2.7;0.6;;;;;;;;;;;;;-50
2022/01/04 14:15:20;;;;;;;;;;;;;;;19.55;52.50098;99766.57;;;;-51
2022/01/04 14:20:20;;;;;;;;;;;;;;;19.58;52.81055;99760.2;;;;-51
2022/01/04 14:25:20;;;;;;;;;;;;;;;19.54;52.18066;99761.41;;;;-50
2022/01/04 14:30:23;;;;;;;;;;;;;;;19.43;51.1543;99776.78;;;;-52
2022/01/04 14:35:23;;;;;;;;;;;;;;;19.5;52.41504;99785.79;;;;-50
2022/01/04 14:40:22;;;;;;;;;;;;;;;19.55;51.80664;99789.39;;;;-48
2022/01/04 14:44:12;;;;;;;3.2;0.5;;;;;;;;;;;;;-46
2022/01/04 14:45:20;;;;;;;;;;;;;;;19.57;51.63672;99787.38;;;;-46
2022/01/04 14:50:20;;;;;;;;;;;;;;;19.59;51.30957;99795.31;;;;-52
2022/01/04 14:55:20;;;;;;;;;;;;;;;19.63;51.74707;99793.5;;;;-52
2022/01/04 15:00:20;;;;;;;;;;;;;;;19.64;51.37207;99791.96;;;;-56
2022/01/04 15:05:20;;;;;;;;;;;;;;;19.65;51.14453;99793.69;;;;-47
2022/01/04 15:10:20;;;;;;;;;;;;;;;19.65;50.72363;99801.55;;;;-48
2022/01/04 15:14:15;;;;;;;3.7;0.7;;;;;;;;;;;;;-49
2022/01/04 15:15:20;;;;;;;;;;;;;;;19.59;50.7168;99807.45;;;;-47
2022/01/04 15:20:20;;;;;;;;;;;;;;;19.55;50.1543;99805.08;;;;-46
2022/01/04 15:25:23;;;;;;;;;;;;;;;19.55;51.08887;99812.77;;;;-51
2022/01/04 15:30:20;;;;;;;;;;;;;;;19.61;50.92285;99816.88;;;;-51
2022/01/04 15:35:22;;;;;;;;;;;;;;;19.6;50.46777;99842.4;;;;-48
2022/01/04 15:40:20;;;;;;;;;;;;;;;19.56;50.37109;99850.44;;;;-52
2022/01/04 15:44:17;;;;;;;1.9;0.5;;;;;;;;;;;;;-52
2022/01/04 15:45:20;;;;;;;;;;;;;;;19.38;51.30664;99846.39;;;;-54
2022/01/04 15:50:20;;;;;;;;;;;;;;;19.51;51.1748;99857.55;;;;-51
2022/01/04 15:55:20;;;;;;;;;;;;;;;19.51;50.10352;99858.05;;;;-52
2022/01/04 16:00:20;;;;;;;;;;;;;;;19.43;51.2793;99859.45;;;;-53
2022/01/04 16:05:20;;;;;;;;;;;;;;;19.47;51.14746;99870.58;;;;-52
2022/01/04 16:10:20;;;;;;;;;;;;;;;19.45;50.43945;99873.82;;;;-56
2022/01/04 16:14:19;;;;;;;2.7;0.6;;;;;;;;;;;;;-57
2022/01/04 16:15:23;;;;;;;;;;;;;;;19.28;50.33984;99880.14;;;;-55
2022/01/04 16:25:20;;;;;;;;;;;;;;;18.7;48.625;99877.14;;;;-54
2022/01/04 16:30:20;;;;;;;;;;;;;;;18.54;48.67578;99880.3;;;;-56
2022/01/04 16:35:20;;;;;;;;;;;;;;;18.49;49.94336;99879.91;;;;-53
2022/01/04 16:40:24;;;;;;;;;;;;;;;18.63;49.7998;99881.05;;;;-56
2022/01/04 16:44:21;;;;;;;2.3;0.5;;;;;;;;;;;;;-59
2022/01/04 16:45:20;;;;;;;;;;;;;;;18.67;49.73633;99880.56;;;;-57
2022/01/04 16:50:21;;;;;;;;;;;;;;;18.7;49.8877;99876.25;;;;-58
2022/01/04 16:55:20;;;;;;;;;;;;;;;18.68;50.1582;99879.41;;;;-56
2022/01/04 17:00:20;;;;;;;;;;;;;;;18.68;50.12402;99887.09;;;;-60
2022/01/04 17:05:20;;;;;;;;;;;;;;;18.66;50.33789;99894.98;;;;-56
2022/01/04 17:10:21;;;;;;;;;;;;;;;18.65;50.26758;99916.73;;;;-58
2022/01/04 17:20:20;;;;;;;;;;;;;;;18.57;49.66797;99913.99;;;;-58
2022/01/04 17:25:20;;;;;;;;;;;;;;;18.61;50.18457;99908.32;;;;-58
2022/01/04 17:30:22;;;;;;;;;;;;;;;18.64;50.16602;99901.67;;;;-55
2022/01/04 17:35:20;;;;;;;;;;;;;;;18.63;50.1748;99898.36;;;;-57
2022/01/04 17:40:20;;;;;;;;;;;;;;;18.64;50.4375;99901.16;;;;-56
2022/01/04 17:44:26;;;;;;;2.4;0.8;;;;;;;;;;;;;-55
2022/01/04 17:45:20;;;;;;;;;;;;;;;18.64;50.13086;99916.04;;;;-56
2022/01/04 17:50:20;;;;;;;;;;;;;;;18.62;50.02734;99933.95;;;;-57
2022/01/04 17:55:20;;;;;;;;;;;;;;;18.57;50.35156;99936.84;;;;-57
2022/01/04 18:00:20;;;;;;;;;;;;;;;18.56;50.14355;99946.81;;;;-55
2022/01/04 18:05:20;;;;;;;;;;;;;;;18.53;50.19727;99945.09;;;;-55
2022/01/04 18:10:20;;;;;;;;;;;;;;;18.48;50.06738;99931.88;;;;-57
2022/01/04 18:14:27;;;;;;;2.9;0.6;;;;;;;;;;;;;-53
2022/01/04 18:15:20;;;;;;;;;;;;;;;18.5;50.02539;99934.13;;;;-59
2022/01/04 18:20:20;;;;;;;;;;;;;;;18.5;50.0127;99944.55;;;;-58
2022/01/04 18:25:20;;;;;;;;;;;;;;;18.53;50.24316;99940.67;;;;-59
2022/01/04 18:30:20;;;;;;;;;;;;;;;18.56;50.70117;99933.27;;;;-58
2022/01/04 18:35:20;;;;;;;;;;;;;;;18.55;50.25781;99922.03;;;;-58
2022/01/04 18:40:20;;;;;;;;;;;;;;;18.56;50.53027;99912.72;;;;-58
2022/01/04 18:44:29;;;;;;;1.9;0.5;;;;;;;;;;;;;-59
2022/01/04 18:45:20;;;;;;;;;;;;;;;18.54;50.39258;99911.98;;;;-58
2022/01/04 18:50:22;;;;;;;;;;;;;;;18.52;50.36719;99915.71;;;;-56
2022/01/04 18:55:20;;;;;;;;;;;;;;;18.55;50.41602;99922.27;;;;-59
2022/01/04 19:00:20;;;;;;;;;;;;;;;18.57;51.00879;99928.19;;;;-57
2022/01/04 19:05:20;;;;;;;;;;;;;;;18.57;50.75977;99917.17;;;;-54
2022/01/04 19:10:20;;;;;;;;;;;;;;;18.56;50.54199;99924.13;;;;-56
2022/01/04 19:14:31;;;;;;;3.1;0.7;;;;;;;;;;;;;-55
2022/01/04 19:15:21;;;;;;;;;;;;;;;18.57;50.38477;99933.3;;;;-54
2022/01/04 19:20:21;;;;;;;;;;;;;;;18.58;50.52246;99931.08;;;;-58
2022/01/04 19:25:20;;;;;;;;;;;;;;;18.52;50.34473;99921.15;;;;-58
2022/01/04 19:30:21;;;;;;;;;;;;;;;18.52;50.36719;99918.14;;;;-53
2022/01/04 19:40:20;;;;;;;;;;;;;;;18.54;50.37012;99929.78;;;;-57
2022/01/04 19:44:34;;;;;;;5.1;0.9;;;;;;;;;;;;;-59
2022/01/04 19:45:20;;;;;;;;;;;;;;;18.44;50.08496;99932.84;;;;-55
2022/01/04 19:50:22;;;;;;;;;;;;;;;18.37;49.94141;99932.83;;;;-59
2022/01/04 19:55:21;;;;;;;;;;;;;;;18.45;50.83691;99944.1;;;;-59
2022/01/04 20:00:20;;;;;;;;;;;;;;;18.5;50.69629;99945.23;;;;-57
2022/01/04 20:05:20;;;;;;;;;;;;;;;18.51;50.67383;99945.2;;;;-58
2022/01/04 20:10:20;;;;;;;;;;;;;;;18.54;50.94922;99948.04;;;;-55
2022/01/04 20:14:37;;;;;;;4;0.7;;;;;;;;;;;;;-55
2022/01/04 20:15:21;;;;;;;;;;;;;;;18.54;50.63086;99947.28;;;;-58
2022/01/04 20:20:20;;;;;;;;;;;;;;;18.52;50.83398;99947.48;;;;-53
2022/01/04 20:25:20;;;;;;;;;;;;;;;18.54;50.67578;99950.88;;;;-56
2022/01/04 20:30:20;;;;;;;;;;;;;;;18.51;50.47949;99951.8;;;;-58
2022/01/04 20:35:20;;;;;;;;;;;;;;;18.5;50.41016;99947.81;;;;-56
2022/01/04 20:40:20;;;;;;;;;;;;;;;18.48;50.29492;99943.98;;;;-59
2022/01/04 20:44:38;;;;;;;4.5;0.7;;;;;;;;;;;;;-58
2022/01/04 20:45:20;;;;;;;;;;;;;;;18.48;50.21484;99942.77;;;;-57
2022/01/04 20:50:20;;;;;;;;;;;;;;;18.48;50.26074;99952.8;;;;-57
2022/01/04 20:55:21;;;;;;;;;;;;;;;18.48;50.1582;99950.25;;;;-53
2022/01/04 21:00:21;;;;;;;;;;;;;;;18.49;50.14941;99944.3;;;;-55
2022/01/04 21:05:20;;;;;;;;;;;;;;;18.49;50.28418;99948.69;;;;-58
2022/01/04 21:10:20;;;;;;;;;;;;;;;18.5;50.17285;99946.98;;;;-55
2022/01/04 21:14:40;;;;;;;3.5;0.7;;;;;;;;;;;;;-55
2022/01/04 21:15:20;;;;;;;;;;;;;;;18.49;49.9668;99949.3;;;;-56
2022/01/04 21:20:20;;;;;;;;;;;;;;;18.48;49.98828;99965.8;;;;-57
2022/01/04 21:25:20;;;;;;;;;;;;;;;18.49;50.00098;99973.2;;;;-56
2022/01/04 21:30:20;;;;;;;;;;;;;;;18.5;50.08203;99973.3;;;;-58
2022/01/04 21:35:20;;;;;;;;;;;;;;;18.47;50.08984;99974.27;;;;-59
2022/01/04 21:40:20;;;;;;;;;;;;;;;18.47;49.97559;99979.94;;;;-56
2022/01/04 21:44:42;;;;;;;2.7;0.7;;;;;;;;;;;;;-56
2022/01/04 21:45:20;;;;;;;;;;;;;;;18.45;50.29199;99982.87;;;;-54
2022/01/04 21:50:20;;;;;;;;;;;;;;;18.44;50.1875;99985.91;;;;-56
2022/01/04 21:55:20;;;;;;;;;;;;;;;18.44;50.00586;99979.55;;;;-57
2022/01/04 22:00:20;;;;;;;;;;;;;;;18.41;50.01465;99984.32;;;;-58
2022/01/04 22:05:20;;;;;;;;;;;;;;;18.42;50.03906;99999.38;;;;-58
2022/01/04 22:10:20;;;;;;;;;;;;;;;18.41;49.94531;99990.04;;;;-59
2022/01/04 22:14:44;;;;;;;3;0.6;;;;;;;;;;;;;-56
2022/01/04 22:15:20;;;;;;;;;;;;;;;18.43;49.89063;99992.58;;;;-59
2022/01/04 22:20:20;;;;;;;;;;;;;;;18.42;49.87988;99992.77;;;;-58
2022/01/04 22:25:20;;;;;;;;;;;;;;;18.4;49.61621;99996.63;;;;-58
2022/01/04 22:30:20;;;;;;;;;;;;;;;18.39;50.19238;99989.96;;;;-56
2022/01/04 22:35:20;;;;;;;;;;;;;;;18.47;50.0791;99997.66;;;;-54
2022/01/04 22:40:20;;;;;;;;;;;;;;;18.58;49.91992;100002.3;;;;-57
2022/01/04 22:44:46;;;;;;;4.5;0.7;;;;;;;;;;;;;-56
2022/01/04 22:45:20;;;;;;;;;;;;;;;18.63;49.50391;100012;;;;-56
2022/01/04 22:50:20;;;;;;;;;;;;;;;18.68;49.22559;100016.7;;;;-55
2022/01/04 22:55:20;;;;;;;;;;;;;;;18.73;48.94629;100022.5;;;;-53
2022/01/04 23:00:20;;;;;;;;;;;;;;;18.75;48.92676;100028.2;;;;-58
2022/01/04 23:05:20;;;;;;;;;;;;;;;18.75;48.9834;100030.8;;;;-52
2022/01/04 23:10:20;;;;;;;;;;;;;;;18.76;49.05273;100029.3;;;;-54
2022/01/04 23:14:48;;;;;;;3.3;0.6;;;;;;;;;;;;;-54
2022/01/04 23:15:20;;;;;;;;;;;;;;;18.77;49.15625;100018.6;;;;-56
2022/01/04 23:20:20;;;;;;;;;;;;;;;18.78;48.62207;100029.7;;;;-57
2022/01/04 23:25:20;;;;;;;;;;;;;;;18.78;48.64453;100031.1;;;;-58
2022/01/04 23:30:20;;;;;;;;;;;;;;;18.78;48.69043;100032.8;;;;-53
2022/01/04 23:35:21;;;;;;;;;;;;;;;18.79;48.75977;100031.6;;;;-53
2022/01/04 23:40:21;;;;;;;;;;;;;;;18.79;48.56641;100039.9;;;;-52
2022/01/04 23:44:50;;;;;;;4.6;0.7;;;;;;;;;;;;;-57
2022/01/04 23:45:20;;;;;;;;;;;;;;;18.8;48.5791;100025.6;;;;-55
2022/01/04 23:50:20;;;;;;;;;;;;;;;18.82;48.2959;100031.9;;;;-55
2022/01/04 23:55:20;;;;;;;;;;;;;;;18.83;48.55859;100030.6;;;;-54
